Cedarville, Kentucky
Current Conditions -  °F | °C
As of 11:15 PM on Friday 19 Dec 2014 (Local Time) from KPBX Reporting Station
Clear Clear  
Wind Chill: 21°   Ceiling: Unl
Heat Index: 26°   Visibility: 10mi
Dew Point: 22°   Wind: 5mph
Humidity: 84%   Direction: 40°NE
Pressure: 30.21"   Gusts: NA
Location:  37.3089°N, 82.3418°W
Report Text: KPBX 200415Z AUTO 04004KT 10SM CLR M03/M05 A3021 RMK AO2 T10311055
Loading
Personal Weather Stations






























Interactive Weather Map New forecast layout! Learn more

10-Day Weather Forecast

Advertisements
Track Severe Weather on mobile